sensor_id;sensor_type;location;lat;lon;timestamp;P1;durP1;ratioP1;P2;durP2;ratioP2
16928;SDS011;8581;47.334;11.190;2022-07-10T00:00:37;2.70;;;1.30;;
16928;SDS011;8581;47.334;11.190;2022-07-10T00:03:08;1.60;;;0.90;;
16928;SDS011;8581;47.334;11.190;2022-07-10T00:05:40;0.90;;;0.90;;
16928;SDS011;8581;47.334;11.190;2022-07-10T00:08:12;1.23;;;1.13;;
16928;SDS011;8581;47.334;11.190;2022-07-10T00:10:43;1.83;;;0.90;;
16928;SDS011;8581;47.334;11.190;2022-07-10T00:13:15;1.60;;;1.10;;
16928;SDS011;8581;47.334;11.190;2022-07-10T00:15:46;1.43;;;1.10;;
16928;SDS011;8581;47.334;11.190;2022-07-10T00:18:18;1.07;;;1.00;;
16928;SDS011;8581;47.334;11.190;2022-07-10T00:20:50;1.93;;;1.00;;
16928;SDS011;8581;47.334;11.190;2022-07-10T00:23:21;1.20;;;1.10;;
16928;SDS011;8581;47.334;11.190;2022-07-10T00:25:53;2.70;;;1.00;;
16928;SDS011;8581;47.334;11.190;2022-07-10T00:28:24;1.40;;;1.00;;
16928;SDS011;8581;47.334;11.190;2022-07-10T00:30:56;1.70;;;1.00;;
16928;SDS011;8581;47.334;11.190;2022-07-10T00:33:28;1.57;;;1.10;;
16928;SDS011;8581;47.334;11.190;2022-07-10T00:35:59;2.83;;;0.90;;
16928;SDS011;8581;47.334;11.190;2022-07-10T00:38:31;2.07;;;1.07;;
16928;SDS011;8581;47.334;11.190;2022-07-10T00:41:02;2.33;;;1.50;;
16928;SDS011;8581;47.334;11.190;2022-07-10T00:43:54;1.67;;;1.20;;
16928;SDS011;8581;47.334;11.190;2022-07-10T00:46:28;1.43;;;1.30;;
16928;SDS011;8581;47.334;11.190;2022-07-10T00:48:59;1.10;;;1.00;;
16928;SDS011;8581;47.334;11.190;2022-07-10T00:51:31;2.10;;;1.27;;
16928;SDS011;8581;47.334;11.190;2022-07-10T00:54:02;2.43;;;1.10;;
16928;SDS011;8581;47.334;11.190;2022-07-10T00:56:34;2.03;;;1.40;;
16928;SDS011;8581;47.334;11.190;2022-07-10T00:59:06;1.83;;;1.20;;
16928;SDS011;8581;47.334;11.190;2022-07-10T01:01:37;3.47;;;1.20;;
16928;SDS011;8581;47.334;11.190;2022-07-10T01:04:09;1.17;;;1.07;;
16928;SDS011;8581;47.334;11.190;2022-07-10T01:06:40;0.90;;;0.90;;
16928;SDS011;8581;47.334;11.190;2022-07-10T01:09:12;1.20;;;1.10;;
16928;SDS011;8581;47.334;11.190;2022-07-10T01:11:44;1.30;;;1.20;;
16928;SDS011;8581;47.334;11.190;2022-07-10T01:14:15;1.10;;;1.00;;
16928;SDS011;8581;47.334;11.190;2022-07-10T01:16:47;2.63;;;1.10;;
16928;SDS011;8581;47.334;11.190;2022-07-10T01:19:19;1.87;;;0.93;;
16928;SDS011;8581;47.334;11.190;2022-07-10T01:21:50;1.30;;;1.03;;
16928;SDS011;8581;47.334;11.190;2022-07-10T01:24:22;1.20;;;1.10;;
16928;SDS011;8581;47.334;11.190;2022-07-10T01:26:53;1.27;;;1.17;;
16928;SDS011;8581;47.334;11.190;2022-07-10T01:29:25;1.97;;;1.50;;
16928;SDS011;8581;47.334;11.190;2022-07-10T01:31:57;1.10;;;1.10;;
16928;SDS011;8581;47.334;11.190;2022-07-10T01:34:28;1.20;;;1.10;;
16928;SDS011;8581;47.334;11.190;2022-07-10T01:37:00;3.43;;;1.43;;
16928;SDS011;8581;47.334;11.190;2022-07-10T01:39:31;1.90;;;1.50;;
16928;SDS011;8581;47.334;11.190;2022-07-10T01:42:03;2.10;;;1.10;;
16928;SDS011;8581;47.334;11.190;2022-07-10T01:44:35;1.30;;;1.20;;
16928;SDS011;8581;47.334;11.190;2022-07-10T01:47:07;2.47;;;1.47;;
16928;SDS011;8581;47.334;11.190;2022-07-10T01:49:38;1.20;;;1.00;;
16928;SDS011;8581;47.334;11.190;2022-07-10T01:52:10;1.50;;;1.33;;
16928;SDS011;8581;47.334;11.190;2022-07-10T01:54:42;2.07;;;1.63;;
16928;SDS011;8581;47.334;11.190;2022-07-10T01:57:14;1.70;;;1.60;;
16928;SDS011;8581;47.334;11.190;2022-07-10T01:59:45;2.70;;;1.53;;
16928;SDS011;8581;47.334;11.190;2022-07-10T02:02:17;1.77;;;1.60;;
16928;SDS011;8581;47.334;11.190;2022-07-10T02:04:48;2.63;;;1.50;;
16928;SDS011;8581;47.334;11.190;2022-07-10T02:07:20;1.50;;;1.40;;
16928;SDS011;8581;47.334;11.190;2022-07-10T02:09:51;3.17;;;1.53;;
16928;SDS011;8581;47.334;11.190;2022-07-10T02:12:23;2.40;;;1.60;;
16928;SDS011;8581;47.334;11.190;2022-07-10T02:14:55;1.80;;;1.40;;
16928;SDS011;8581;47.334;11.190;2022-07-10T02:17:26;1.73;;;1.37;;
16928;SDS011;8581;47.334;11.190;2022-07-10T02:19:58;1.50;;;1.40;;
16928;SDS011;8581;47.334;11.190;2022-07-10T02:22:30;2.00;;;1.50;;
16928;SDS011;8581;47.334;11.190;2022-07-10T02:25:01;1.43;;;1.33;;
16928;SDS011;8581;47.334;11.190;2022-07-10T02:27:33;1.30;;;1.20;;
16928;SDS011;8581;47.334;11.190;2022-07-10T02:30:05;2.40;;;1.50;;
16928;SDS011;8581;47.334;11.190;2022-07-10T02:32:37;1.40;;;1.30;;
16928;SDS011;8581;47.334;11.190;2022-07-10T02:35:09;1.30;;;1.20;;
16928;SDS011;8581;47.334;11.190;2022-07-10T02:37:40;2.20;;;1.40;;
16928;SDS011;8581;47.334;11.190;2022-07-10T02:40:12;1.50;;;1.40;;
16928;SDS011;8581;47.334;11.190;2022-07-10T02:42:43;1.60;;;1.33;;
16928;SDS011;8581;47.334;11.190;2022-07-10T02:45:15;1.30;;;1.20;;
16928;SDS011;8581;47.334;11.190;2022-07-10T02:47:47;2.00;;;1.40;;
16928;SDS011;8581;47.334;11.190;2022-07-10T02:50:18;1.70;;;1.60;;
16928;SDS011;8581;47.334;11.190;2022-07-10T02:52:50;1.80;;;1.30;;
16928;SDS011;8581;47.334;11.190;2022-07-10T02:55:22;1.47;;;1.30;;
16928;SDS011;8581;47.334;11.190;2022-07-10T02:57:53;1.40;;;1.30;;
16928;SDS011;8581;47.334;11.190;2022-07-10T03:00:25;1.70;;;1.60;;
16928;SDS011;8581;47.334;11.190;2022-07-10T03:02:56;1.40;;;1.27;;
16928;SDS011;8581;47.334;11.190;2022-07-10T03:05:28;1.70;;;1.60;;
16928;SDS011;8581;47.334;11.190;2022-07-10T03:08:00;1.40;;;1.30;;
16928;SDS011;8581;47.334;11.190;2022-07-10T03:10:31;1.50;;;1.40;;
16928;SDS011;8581;47.334;11.190;2022-07-10T03:13:03;1.30;;;1.20;;
16928;SDS011;8581;47.334;11.190;2022-07-10T03:15:34;1.50;;;1.40;;
16928;SDS011;8581;47.334;11.190;2022-07-10T03:18:06;1.60;;;1.50;;
16928;SDS011;8581;47.334;11.190;2022-07-10T03:20:38;1.80;;;1.50;;
16928;SDS011;8581;47.334;11.190;2022-07-10T03:23:09;1.40;;;1.30;;
16928;SDS011;8581;47.334;11.190;2022-07-10T03:25:41;1.50;;;1.40;;
16928;SDS011;8581;47.334;11.190;2022-07-10T03:28:12;1.40;;;1.30;;
16928;SDS011;8581;47.334;11.190;2022-07-10T03:30:44;1.60;;;1.50;;
16928;SDS011;8581;47.334;11.190;2022-07-10T03:33:16;1.87;;;1.67;;
16928;SDS011;8581;47.334;11.190;2022-07-10T03:35:47;1.60;;;1.50;;
16928;SDS011;8581;47.334;11.190;2022-07-10T03:38:19;2.23;;;1.70;;
16928;SDS011;8581;47.334;11.190;2022-07-10T03:40:50;1.87;;;1.77;;
16928;SDS011;8581;47.334;11.190;2022-07-10T03:43:22;1.50;;;1.40;;
16928;SDS011;8581;47.334;11.190;2022-07-10T03:45:54;1.60;;;1.50;;
16928;SDS011;8581;47.334;11.190;2022-07-10T03:48:25;2.33;;;1.90;;
16928;SDS011;8581;47.334;11.190;2022-07-10T03:50:57;1.63;;;1.50;;
16928;SDS011;8581;47.334;11.190;2022-07-10T03:53:28;1.70;;;1.60;;
16928;SDS011;8581;47.334;11.190;2022-07-10T03:56:00;2.20;;;1.70;;
16928;SDS011;8581;47.334;11.190;2022-07-10T03:58:32;1.80;;;1.70;;
16928;SDS011;8581;47.334;11.190;2022-07-10T04:01:03;1.93;;;1.83;;
16928;SDS011;8581;47.334;11.190;2022-07-10T04:03:35;2.20;;;1.80;;
16928;SDS011;8581;47.334;11.190;2022-07-10T04:06:06;2.53;;;1.80;;
16928;SDS011;8581;47.334;11.190;2022-07-10T04:08:38;1.93;;;1.70;;
16928;SDS011;8581;47.334;11.190;2022-07-10T04:11:10;2.03;;;1.80;;
16928;SDS011;8581;47.334;11.190;2022-07-10T04:13:41;2.03;;;1.90;;
16928;SDS011;8581;47.334;11.190;2022-07-10T04:16:13;1.70;;;1.60;;
16928;SDS011;8581;47.334;11.190;2022-07-10T04:18:44;2.30;;;1.60;;
16928;SDS011;8581;47.334;11.190;2022-07-10T04:21:16;2.80;;;1.77;;
16928;SDS011;8581;47.334;11.190;2022-07-10T04:23:48;2.10;;;1.90;;
16928;SDS011;8581;47.334;11.190;2022-07-10T04:26:19;1.50;;;1.40;;
16928;SDS011;8581;47.334;11.190;2022-07-10T04:28:51;1.80;;;1.70;;
16928;SDS011;8581;47.334;11.190;2022-07-10T04:31:22;1.70;;;1.50;;
16928;SDS011;8581;47.334;11.190;2022-07-10T04:33:54;5.43;;;3.00;;
16928;SDS011;8581;47.334;11.190;2022-07-10T04:36:26;3.53;;;2.30;;
16928;SDS011;8581;47.334;11.190;2022-07-10T04:38:57;3.83;;;2.07;;
16928;SDS011;8581;47.334;11.190;2022-07-10T04:41:29;3.07;;;2.60;;
16928;SDS011;8581;47.334;11.190;2022-07-10T04:44:00;12.07;;;10.77;;
16928;SDS011;8581;47.334;11.190;2022-07-10T04:46:32;4.57;;;3.60;;
16928;SDS011;8581;47.334;11.190;2022-07-10T04:49:04;2.07;;;1.90;;
16928;SDS011;8581;47.334;11.190;2022-07-10T04:51:35;3.30;;;2.30;;
16928;SDS011;8581;47.334;11.190;2022-07-10T04:54:07;2.50;;;2.00;;
16928;SDS011;8581;47.334;11.190;2022-07-10T04:56:38;2.93;;;1.60;;
16928;SDS011;8581;47.334;11.190;2022-07-10T04:59:10;2.00;;;1.60;;
16928;SDS011;8581;47.334;11.190;2022-07-10T05:01:42;2.30;;;1.80;;
16928;SDS011;8581;47.334;11.190;2022-07-10T05:04:13;2.80;;;1.80;;
16928;SDS011;8581;47.334;11.190;2022-07-10T05:06:45;1.80;;;1.70;;
16928;SDS011;8581;47.334;11.190;2022-07-10T05:09:17;2.63;;;2.10;;
16928;SDS011;8581;47.334;11.190;2022-07-10T05:11:48;1.80;;;1.70;;
16928;SDS011;8581;47.334;11.190;2022-07-10T05:14:20;2.90;;;2.20;;
16928;SDS011;8581;47.334;11.190;2022-07-10T05:16:52;2.80;;;2.30;;
16928;SDS011;8581;47.334;11.190;2022-07-10T05:19:23;2.67;;;1.97;;
16928;SDS011;8581;47.334;11.190;2022-07-10T05:21:55;1.90;;;1.80;;
16928;SDS011;8581;47.334;11.190;2022-07-10T05:24:26;2.57;;;2.20;;
16928;SDS011;8581;47.334;11.190;2022-07-10T05:26:58;2.60;;;2.40;;
16928;SDS011;8581;47.334;11.190;2022-07-10T05:29:30;2.33;;;2.13;;
16928;SDS011;8581;47.334;11.190;2022-07-10T05:32:02;2.63;;;2.00;;
16928;SDS011;8581;47.334;11.190;2022-07-10T05:34:33;2.70;;;2.00;;
16928;SDS011;8581;47.334;11.190;2022-07-10T05:37:05;4.60;;;2.60;;
16928;SDS011;8581;47.334;11.190;2022-07-10T05:39:36;3.00;;;2.17;;
16928;SDS011;8581;47.334;11.190;2022-07-10T05:42:08;2.30;;;2.10;;
16928;SDS011;8581;47.334;11.190;2022-07-10T05:44:40;2.00;;;1.83;;
16928;SDS011;8581;47.334;11.190;2022-07-10T05:47:11;2.40;;;2.20;;
16928;SDS011;8581;47.334;11.190;2022-07-10T05:49:43;2.23;;;2.03;;
16928;SDS011;8581;47.334;11.190;2022-07-10T05:52:15;2.07;;;1.97;;
16928;SDS011;8581;47.334;11.190;2022-07-10T05:54:46;2.90;;;2.20;;
16928;SDS011;8581;47.334;11.190;2022-07-10T05:57:18;5.10;;;2.40;;
16928;SDS011;8581;47.334;11.190;2022-07-10T05:59:49;2.30;;;2.10;;
16928;SDS011;8581;47.334;11.190;2022-07-10T06:02:21;3.07;;;2.27;;
16928;SDS011;8581;47.334;11.190;2022-07-10T06:04:53;2.80;;;1.87;;
16928;SDS011;8581;47.334;11.190;2022-07-10T06:07:25;2.60;;;2.40;;
16928;SDS011;8581;47.334;11.190;2022-07-10T06:09:56;3.23;;;2.20;;
16928;SDS011;8581;47.334;11.190;2022-07-10T06:12:28;2.57;;;2.23;;
16928;SDS011;8581;47.334;11.190;2022-07-10T06:14:59;2.73;;;2.53;;
16928;SDS011;8581;47.334;11.190;2022-07-10T06:17:31;5.20;;;2.27;;
16928;SDS011;8581;47.334;11.190;2022-07-10T06:20:03;2.93;;;2.13;;
16928;SDS011;8581;47.334;11.190;2022-07-10T06:22:35;2.17;;;2.00;;
16928;SDS011;8581;47.334;11.190;2022-07-10T06:25:07;2.43;;;2.27;;
16928;SDS011;8581;47.334;11.190;2022-07-10T06:27:38;3.00;;;2.60;;
16928;SDS011;8581;47.334;11.190;2022-07-10T06:30:10;2.60;;;2.40;;
16928;SDS011;8581;47.334;11.190;2022-07-10T06:32:42;2.67;;;2.20;;
16928;SDS011;8581;47.334;11.190;2022-07-10T06:35:13;3.37;;;2.70;;
16928;SDS011;8581;47.334;11.190;2022-07-10T06:37:45;4.03;;;2.90;;
16928;SDS011;8581;47.334;11.190;2022-07-10T06:40:17;3.30;;;2.50;;
16928;SDS011;8581;47.334;11.190;2022-07-10T06:42:48;2.70;;;2.50;;
16928;SDS011;8581;47.334;11.190;2022-07-10T06:45:20;2.57;;;2.37;;
16928;SDS011;8581;47.334;11.190;2022-07-10T06:47:51;3.07;;;2.73;;
16928;SDS011;8581;47.334;11.190;2022-07-10T06:50:28;2.90;;;2.43;;
16928;SDS011;8581;47.334;11.190;2022-07-10T06:53:01;3.17;;;2.70;;
16928;SDS011;8581;47.334;11.190;2022-07-10T06:55:33;4.10;;;3.30;;
16928;SDS011;8581;47.334;11.190;2022-07-10T06:58:04;3.20;;;2.90;;
16928;SDS011;8581;47.334;11.190;2022-07-10T07:00:36;4.27;;;3.20;;
16928;SDS011;8581;47.334;11.190;2022-07-10T07:03:08;3.30;;;3.00;;
16928;SDS011;8581;47.334;11.190;2022-07-10T07:05:39;3.83;;;3.43;;
16928;SDS011;8581;47.334;11.190;2022-07-10T07:08:11;4.00;;;3.60;;
16928;SDS011;8581;47.334;11.190;2022-07-10T07:10:42;4.90;;;4.40;;
16928;SDS011;8581;47.334;11.190;2022-07-10T07:13:14;5.00;;;4.60;;
16928;SDS011;8581;47.334;11.190;2022-07-10T07:15:46;4.40;;;4.00;;
16928;SDS011;8581;47.334;11.190;2022-07-10T07:18:17;3.60;;;3.40;;
16928;SDS011;8581;47.334;11.190;2022-07-10T07:20:49;4.30;;;4.00;;
16928;SDS011;8581;47.334;11.190;2022-07-10T07:23:26;4.13;;;3.83;;
16928;SDS011;8581;47.334;11.190;2022-07-10T07:25:58;4.60;;;4.20;;
16928;SDS011;8581;47.334;11.190;2022-07-10T07:28:29;4.93;;;4.53;;
16928;SDS011;8581;47.334;11.190;2022-07-10T07:31:01;4.70;;;4.30;;
16928;SDS011;8581;47.334;11.190;2022-07-10T07:33:33;7.43;;;5.70;;
16928;SDS011;8581;47.334;11.190;2022-07-10T07:36:05;5.80;;;5.20;;
16928;SDS011;8581;47.334;11.190;2022-07-10T07:38:37;5.57;;;5.03;;
16928;SDS011;8581;47.334;11.190;2022-07-10T07:41:08;4.90;;;4.43;;
16928;SDS011;8581;47.334;11.190;2022-07-10T07:43:40;5.07;;;4.57;;
16928;SDS011;8581;47.334;11.190;2022-07-10T07:46:12;5.53;;;4.93;;
16928;SDS011;8581;47.334;11.190;2022-07-10T07:48:43;5.23;;;4.63;;
16928;SDS011;8581;47.334;11.190;2022-07-10T07:51:15;5.63;;;5.10;;
16928;SDS011;8581;47.334;11.190;2022-07-10T07:53:46;5.97;;;5.20;;
16928;SDS011;8581;47.334;11.190;2022-07-10T07:56:18;5.37;;;4.87;;
16928;SDS011;8581;47.334;11.190;2022-07-10T07:58:50;6.20;;;5.60;;
16928;SDS011;8581;47.334;11.190;2022-07-10T08:01:21;5.90;;;5.40;;
16928;SDS011;8581;47.334;11.190;2022-07-10T08:03:53;6.07;;;5.27;;
16928;SDS011;8581;47.334;11.190;2022-07-10T08:06:24;5.80;;;5.30;;
16928;SDS011;8581;47.334;11.190;2022-07-10T08:08:56;6.20;;;5.60;;
16928;SDS011;8581;47.334;11.190;2022-07-10T08:11:28;7.00;;;6.30;;
16928;SDS011;8581;47.334;11.190;2022-07-10T08:13:59;6.13;;;5.63;;
16928;SDS011;8581;47.334;11.190;2022-07-10T08:16:31;6.57;;;5.97;;
16928;SDS011;8581;47.334;11.190;2022-07-10T08:19:03;6.83;;;5.30;;
16928;SDS011;8581;47.334;11.190;2022-07-10T08:21:34;6.23;;;4.87;;
16928;SDS011;8581;47.334;11.190;2022-07-10T08:24:06;5.30;;;4.90;;
16928;SDS011;8581;47.334;11.190;2022-07-10T08:26:38;4.90;;;4.33;;
16928;SDS011;8581;47.334;11.190;2022-07-10T08:29:09;4.87;;;4.37;;
16928;SDS011;8581;47.334;11.190;2022-07-10T08:31:41;4.83;;;4.37;;
16928;SDS011;8581;47.334;11.190;2022-07-10T08:34:12;5.20;;;4.67;;
16928;SDS011;8581;47.334;11.190;2022-07-10T08:36:44;4.83;;;4.30;;
16928;SDS011;8581;47.334;11.190;2022-07-10T08:39:16;4.90;;;4.50;;
16928;SDS011;8581;47.334;11.190;2022-07-10T08:41:48;5.63;;;4.50;;
16928;SDS011;8581;47.334;11.190;2022-07-10T08:44:20;4.83;;;4.37;;
16928;SDS011;8581;47.334;11.190;2022-07-10T08:46:52;13.33;;;4.63;;
16928;SDS011;8581;47.334;11.190;2022-07-10T08:49:26;21.93;;;5.10;;
16928;SDS011;8581;47.334;11.190;2022-07-10T08:54:44;4.57;;;4.17;;
16928;SDS011;8581;47.334;11.190;2022-07-10T08:57:15;3.93;;;3.63;;
16928;SDS011;8581;47.334;11.190;2022-07-10T08:59:47;3.98;;;3.67;;
16928;SDS011;8581;47.334;11.190;2022-07-10T09:02:19;4.27;;;3.87;;
16928;SDS011;8581;47.334;11.190;2022-07-10T09:04:50;4.17;;;3.87;;
16928;SDS011;8581;47.334;11.190;2022-07-10T09:07:22;3.93;;;3.63;;
16928;SDS011;8581;47.334;11.190;2022-07-10T09:09:54;4.05;;;3.35;;
16928;SDS011;8581;47.334;11.190;2022-07-10T09:12:26;4.10;;;3.47;;
16928;SDS011;8581;47.334;11.190;2022-07-10T09:15:14;3.67;;;3.37;;
16928;SDS011;8581;47.334;11.190;2022-07-10T09:17:30;4.60;;;3.85;;
16928;SDS011;8581;47.334;11.190;2022-07-10T09:20:01;4.15;;;3.85;;
16928;SDS011;8581;47.334;11.190;2022-07-10T09:22:34;3.72;;;3.42;;
16928;SDS011;8581;47.334;11.190;2022-07-10T09:25:11;5.40;;;4.30;;
16928;SDS011;8581;47.334;11.190;2022-07-10T09:27:50;4.70;;;4.30;;
16928;SDS011;8581;47.334;11.190;2022-07-10T09:30:08;4.93;;;4.40;;
16928;SDS011;8581;47.334;11.190;2022-07-10T09:32:40;4.30;;;3.90;;
16928;SDS011;8581;47.334;11.190;2022-07-10T09:35:12;3.70;;;3.40;;
16928;SDS011;8581;47.334;11.190;2022-07-10T09:37:49;5.13;;;4.73;;
16928;SDS011;8581;47.334;11.190;2022-07-10T09:40:20;5.40;;;4.27;;
16928;SDS011;8581;47.334;11.190;2022-07-10T09:42:52;4.07;;;3.77;;
16928;SDS011;8581;47.334;11.190;2022-07-10T09:45:24;4.47;;;4.03;;
16928;SDS011;8581;47.334;11.190;2022-07-10T09:47:56;4.43;;;4.00;;
16928;SDS011;8581;47.334;11.190;2022-07-10T09:50:28;5.13;;;4.60;;
16928;SDS011;8581;47.334;11.190;2022-07-10T09:53:00;5.40;;;4.90;;
16928;SDS011;8581;47.334;11.190;2022-07-10T09:55:33;4.67;;;4.00;;
16928;SDS011;8581;47.334;11.190;2022-07-10T09:58:05;5.73;;;3.90;;
16928;SDS011;8581;47.334;11.190;2022-07-10T10:00:38;3.70;;;3.40;;
16928;SDS011;8581;47.334;11.190;2022-07-10T10:03:09;3.67;;;3.10;;
16928;SDS011;8581;47.334;11.190;2022-07-10T10:05:55;3.00;;;2.80;;
16928;SDS011;8581;47.334;11.190;2022-07-10T10:08:27;3.33;;;3.07;;
16928;SDS011;8581;47.334;11.190;2022-07-10T10:10:59;3.77;;;3.47;;
16928;SDS011;8581;47.334;11.190;2022-07-10T10:13:31;3.53;;;3.17;;
16928;SDS011;8581;47.334;11.190;2022-07-10T10:16:03;3.37;;;3.17;;
16928;SDS011;8581;47.334;11.190;2022-07-10T10:18:36;3.33;;;3.03;;
16928;SDS011;8581;47.334;11.190;2022-07-10T10:21:07;3.90;;;3.58;;
16928;SDS011;8581;47.334;11.190;2022-07-10T10:23:39;3.80;;;3.50;;
16928;SDS011;8581;47.334;11.190;2022-07-10T10:26:10;4.10;;;3.50;;
16928;SDS011;8581;47.334;11.190;2022-07-10T10:28:42;3.80;;;3.50;;
16928;SDS011;8581;47.334;11.190;2022-07-10T10:31:14;4.67;;;3.77;;
16928;SDS011;8581;47.334;11.190;2022-07-10T10:33:45;3.90;;;3.60;;
16928;SDS011;8581;47.334;11.190;2022-07-10T10:36:42;3.80;;;3.50;;
16928;SDS011;8581;47.334;11.190;2022-07-10T10:39:11;3.75;;;3.02;;
16928;SDS011;8581;47.334;11.190;2022-07-10T10:41:50;3.15;;;2.95;;
16928;SDS011;8581;47.334;11.190;2022-07-10T10:44:22;3.20;;;3.00;;
16928;SDS011;8581;47.334;11.190;2022-07-10T10:46:55;3.12;;;2.80;;
16928;SDS011;8581;47.334;11.190;2022-07-10T10:49:47;5.12;;;2.87;;
16928;SDS011;8581;47.334;11.190;2022-07-10T10:52:18;12.55;;;11.22;;
16928;SDS011;8581;47.334;11.190;2022-07-10T10:55:02;3.42;;;2.65;;
16928;SDS011;8581;47.334;11.190;2022-07-10T10:57:35;3.52;;;2.85;;
16928;SDS011;8581;47.334;11.190;2022-07-10T11:00:07;2.33;;;2.12;;
16928;SDS011;8581;47.334;11.190;2022-07-10T11:02:40;3.12;;;2.70;;
16928;SDS011;8581;47.334;11.190;2022-07-10T11:08:00;4.10;;;2.75;;
16928;SDS011;8581;47.334;11.190;2022-07-10T11:10:34;2.75;;;2.50;;
16928;SDS011;8581;47.334;11.190;2022-07-10T11:13:11;2.80;;;2.60;;
16928;SDS011;8581;47.334;11.190;2022-07-10T11:15:45;2.12;;;1.92;;
16928;SDS011;8581;47.334;11.190;2022-07-10T11:18:18;2.60;;;2.37;;
16928;SDS011;8581;47.334;11.190;2022-07-10T11:20:50;2.55;;;2.35;;
16928;SDS011;8581;47.334;11.190;2022-07-10T11:23:37;2.60;;;2.10;;
16928;SDS011;8581;47.334;11.190;2022-07-10T11:26:35;2.10;;;2.00;;
16928;SDS011;8581;47.334;11.190;2022-07-10T11:29:06;1.80;;;1.70;;
16928;SDS011;8581;47.334;11.190;2022-07-10T11:31:38;1.60;;;1.50;;
16928;SDS011;8581;47.334;11.190;2022-07-10T11:34:10;1.65;;;1.55;;
16928;SDS011;8581;47.334;11.190;2022-07-10T11:36:41;2.02;;;1.62;;
16928;SDS011;8581;47.334;11.190;2022-07-10T11:39:13;1.95;;;1.80;;
16928;SDS011;8581;47.334;11.190;2022-07-10T11:41:45;1.95;;;1.75;;
16928;SDS011;8581;47.334;11.190;2022-07-10T11:44:17;2.30;;;1.62;;
16928;SDS011;8581;47.334;11.190;2022-07-10T11:46:48;1.72;;;1.62;;
16928;SDS011;8581;47.334;11.190;2022-07-10T11:49:19;1.80;;;1.70;;
16928;SDS011;8581;47.334;11.190;2022-07-10T11:51:51;1.95;;;1.40;;
16928;SDS011;8581;47.334;11.190;2022-07-10T11:54:22;1.42;;;1.32;;
16928;SDS011;8581;47.334;11.190;2022-07-10T11:56:54;1.57;;;1.47;;
16928;SDS011;8581;47.334;11.190;2022-07-10T11:59:27;1.50;;;1.40;;
16928;SDS011;8581;47.334;11.190;2022-07-10T12:01:57;2.33;;;1.80;;
16928;SDS011;8581;47.334;11.190;2022-07-10T12:04:29;1.60;;;1.50;;
16928;SDS011;8581;47.334;11.190;2022-07-10T12:07:01;1.82;;;1.50;;
16928;SDS011;8581;47.334;11.190;2022-07-10T12:09:32;6.78;;;2.00;;
16928;SDS011;8581;47.334;11.190;2022-07-10T12:12:05;1.82;;;1.72;;
16928;SDS011;8581;47.334;11.190;2022-07-10T12:14:37;1.90;;;1.80;;
16928;SDS011;8581;47.334;11.190;2022-07-10T12:17:10;2.45;;;1.72;;
16928;SDS011;8581;47.334;11.190;2022-07-10T12:19:41;1.90;;;1.80;;
16928;SDS011;8581;47.334;11.190;2022-07-10T12:22:13;1.80;;;1.70;;
16928;SDS011;8581;47.334;11.190;2022-07-10T12:24:44;2.35;;;1.90;;
16928;SDS011;8581;47.334;11.190;2022-07-10T12:30:09;2.98;;;1.95;;
16928;SDS011;8581;47.334;11.190;2022-07-10T12:32:40;2.02;;;1.70;;
16928;SDS011;8581;47.334;11.190;2022-07-10T12:35:12;1.77;;;1.67;;
16928;SDS011;8581;47.334;11.190;2022-07-10T12:37:47;1.85;;;1.75;;
16928;SDS011;8581;47.334;11.190;2022-07-10T12:43:02;2.17;;;2.00;;
16928;SDS011;8581;47.334;11.190;2022-07-10T12:45:33;2.40;;;2.20;;
16928;SDS011;8581;47.334;11.190;2022-07-10T12:48:05;2.50;;;2.30;;
16928;SDS011;8581;47.334;11.190;2022-07-10T12:50:37;4.62;;;2.40;;
16928;SDS011;8581;47.334;11.190;2022-07-10T12:53:09;2.37;;;2.10;;
16928;SDS011;8581;47.334;11.190;2022-07-10T12:55:41;2.83;;;2.50;;
16928;SDS011;8581;47.334;11.190;2022-07-10T12:58:12;2.60;;;2.40;;
16928;SDS011;8581;47.334;11.190;2022-07-10T13:00:45;3.37;;;2.40;;
16928;SDS011;8581;47.334;11.190;2022-07-10T13:03:18;2.77;;;2.20;;
16928;SDS011;8581;47.334;11.190;2022-07-10T13:05:49;3.10;;;2.57;;
16928;SDS011;8581;47.334;11.190;2022-07-10T13:08:21;2.17;;;1.97;;
16928;SDS011;8581;47.334;11.190;2022-07-10T13:10:56;2.90;;;2.60;;
16928;SDS011;8581;47.334;11.190;2022-07-10T13:13:27;2.30;;;2.12;;
16928;SDS011;8581;47.334;11.190;2022-07-10T13:15:59;3.13;;;2.30;;
16928;SDS011;8581;47.334;11.190;2022-07-10T13:18:30;2.70;;;2.43;;
16928;SDS011;8581;47.334;11.190;2022-07-10T13:21:02;5.23;;;2.00;;
16928;SDS011;8581;47.334;11.190;2022-07-10T13:23:34;2.60;;;2.00;;
16928;SDS011;8581;47.334;11.190;2022-07-10T13:26:05;2.42;;;2.22;;
16928;SDS011;8581;47.334;11.190;2022-07-10T13:28:38;1.95;;;1.85;;
16928;SDS011;8581;47.334;11.190;2022-07-10T13:31:09;2.17;;;1.83;;
16928;SDS011;8581;47.334;11.190;2022-07-10T13:33:41;3.07;;;1.90;;
16928;SDS011;8581;47.334;11.190;2022-07-10T13:36:13;2.22;;;2.00;;
16928;SDS011;8581;47.334;11.190;2022-07-10T13:38:44;2.10;;;1.90;;
16928;SDS011;8581;47.334;11.190;2022-07-10T13:41:16;1.87;;;1.77;;
16928;SDS011;8581;47.334;11.190;2022-07-10T13:43:48;2.02;;;1.92;;
16928;SDS011;8581;47.334;11.190;2022-07-10T13:46:19;2.02;;;1.80;;
16928;SDS011;8581;47.334;11.190;2022-07-10T13:48:51;1.80;;;1.70;;
16928;SDS011;8581;47.334;11.190;2022-07-10T13:51:22;2.22;;;2.02;;
16928;SDS011;8581;47.334;11.190;2022-07-10T13:53:54;2.17;;;1.90;;
16928;SDS011;8581;47.334;11.190;2022-07-10T13:56:26;2.60;;;2.37;;
16928;SDS011;8581;47.334;11.190;2022-07-10T13:58:57;2.15;;;1.95;;
16928;SDS011;8581;47.334;11.190;2022-07-10T14:01:29;2.50;;;2.30;;
16928;SDS011;8581;47.334;11.190;2022-07-10T14:04:00;3.23;;;2.27;;
16928;SDS011;8581;47.334;11.190;2022-07-10T14:06:32;3.20;;;2.40;;
16928;SDS011;8581;47.334;11.190;2022-07-10T14:09:04;2.23;;;2.03;;
16928;SDS011;8581;47.334;11.190;2022-07-10T14:11:35;2.37;;;2.17;;
16928;SDS011;8581;47.334;11.190;2022-07-10T14:14:07;2.57;;;2.07;;
16928;SDS011;8581;47.334;11.190;2022-07-10T14:16:44;2.42;;;2.22;;
16928;SDS011;8581;47.334;11.190;2022-07-10T14:19:15;2.33;;;2.10;;
16928;SDS011;8581;47.334;11.190;2022-07-10T14:21:47;2.80;;;2.12;;
16928;SDS011;8581;47.334;11.190;2022-07-10T14:24:19;3.67;;;2.37;;
16928;SDS011;8581;47.334;11.190;2022-07-10T14:26:50;2.37;;;2.15;;
16928;SDS011;8581;47.334;11.190;2022-07-10T14:29:22;2.00;;;1.90;;
16928;SDS011;8581;47.334;11.190;2022-07-10T14:31:53;2.37;;;1.90;;
16928;SDS011;8581;47.334;11.190;2022-07-10T14:34:25;3.33;;;2.10;;
16928;SDS011;8581;47.334;11.190;2022-07-10T14:36:57;2.30;;;2.10;;
16928;SDS011;8581;47.334;11.190;2022-07-10T14:39:28;2.30;;;2.10;;
16928;SDS011;8581;47.334;11.190;2022-07-10T14:42:00;2.50;;;2.30;;
16928;SDS011;8581;47.334;11.190;2022-07-10T14:44:32;2.30;;;2.10;;
16928;SDS011;8581;47.334;11.190;2022-07-10T14:47:04;2.00;;;1.90;;
16928;SDS011;8581;47.334;11.190;2022-07-10T14:49:36;2.70;;;2.50;;
16928;SDS011;8581;47.334;11.190;2022-07-10T14:52:07;2.60;;;2.40;;
16928;SDS011;8581;47.334;11.190;2022-07-10T14:54:39;4.63;;;3.17;;
16928;SDS011;8581;47.334;11.190;2022-07-10T14:57:10;2.22;;;2.02;;
16928;SDS011;8581;47.334;11.190;2022-07-10T14:59:42;2.40;;;2.20;;
16928;SDS011;8581;47.334;11.190;2022-07-10T15:02:14;2.20;;;2.00;;
16928;SDS011;8581;47.334;11.190;2022-07-10T15:04:45;2.47;;;1.93;;
16928;SDS011;8581;47.334;11.190;2022-07-10T15:07:17;2.40;;;2.20;;
16928;SDS011;8581;47.334;11.190;2022-07-10T15:09:48;3.63;;;1.90;;
16928;SDS011;8581;47.334;11.190;2022-07-10T15:12:20;2.30;;;2.10;;
16928;SDS011;8581;47.334;11.190;2022-07-10T15:14:52;2.07;;;1.97;;
16928;SDS011;8581;47.334;11.190;2022-07-10T15:17:23;2.67;;;1.90;;
16928;SDS011;8581;47.334;11.190;2022-07-10T15:19:55;1.93;;;1.83;;
16928;SDS011;8581;47.334;11.190;2022-07-10T15:22:26;2.20;;;2.10;;
16928;SDS011;8581;47.334;11.190;2022-07-10T15:24:58;4.43;;;2.07;;
16928;SDS011;8581;47.334;11.190;2022-07-10T15:27:30;2.40;;;2.20;;